Time,TemperatureF,DewpointF,PressureIn,WindDirection,WindDirectionDegrees,WindSpeedMPH,WindSpeedGustMPH,Humidity,HourlyPrecipIn,Conditions,Clouds,dailyrainin,SoftwareType,DateUTC
2013-09-08 00:03:00,75.5,69.0,29.90,South,171,0.0,2.0,79,0.00,,,0.00,weatherlink.com 1.10,2013-09-08 05:03:00,
2013-09-08 00:18:00,73.5,68.0,29.90,South,172,2.0,4.0,83,0.00,,,0.00,weatherlink.com 1.10,2013-09-08 05:18:00,
2013-09-08 00:33:00,73.5,68.0,29.90,SSE,159,4.0,4.0,82,0.00,,,0.00,weatherlink.com 1.10,2013-09-08 05:33:00,
2013-09-08 00:48:00,74.3,67.0,29.90,SSE,147,3.0,5.0,79,0.00,,,0.00,weatherlink.com 1.10,2013-09-08 05:48:00,
2013-09-08 01:03:00,74.3,68.0,29.89,SSE,164,1.0,5.0,80,0.00,,,0.00,weatherlink.com 1.10,2013-09-08 06:03:00,
2013-09-08 01:18:00,73.7,68.0,29.89,SSE,167,3.0,4.0,83,0.00,,,0.00,weatherlink.com 1.10,2013-09-08 06:18:00,
2013-09-08 01:33:00,73.7,68.0,29.89,SSE,153,2.0,5.0,83,0.00,,,0.00,weatherlink.com 1.10,2013-09-08 06:33:00,
2013-09-08 01:48:00,73.7,69.0,29.89,SSE,166,4.0,4.0,84,0.00,,,0.00,weatherlink.com 1.10,2013-09-08 06:48:00,
2013-09-08 02:03:00,73.9,69.0,29.89,SSE,162,3.0,5.0,84,0.00,,,0.00,weatherlink.com 1.10,2013-09-08 07:03:00,
2013-09-08 02:18:00,73.8,68.0,29.89,SSE,155,2.0,4.0,82,0.00,,,0.00,weatherlink.com 1.10,2013-09-08 07:18:00,
2013-09-08 02:33:00,74.3,67.0,29.88,South,174,5.0,8.0,79,0.00,,,0.00,weatherlink.com 1.10,2013-09-08 07:33:00,
2013-09-08 02:48:00,73.9,68.0,29.88,SE,141,2.0,7.0,81,0.00,,,0.00,weatherlink.com 1.10,2013-09-08 07:48:00,
2013-09-08 03:03:00,73.4,67.0,29.87,South,173,3.0,6.0,81,0.00,,,0.00,weatherlink.com 1.10,2013-09-08 08:03:00,
2013-09-08 03:18:00,74.0,67.0,29.87,SSE,165,5.0,6.0,78,0.00,,,0.00,weatherlink.com 1.10,2013-09-08 08:18:00,
2013-09-08 03:33:00,73.8,67.0,29.86,SSE,155,3.0,8.0,79,0.00,,,0.00,weatherlink.com 1.10,2013-09-08 08:33:00,
2013-09-08 03:48:00,74.1,67.0,29.88,SSE,157,5.0,7.0,78,0.00,,,0.00,weatherlink.com 1.10,2013-09-08 08:48:00,
2013-09-08 04:03:00,73.7,67.0,29.91,NNW,347,8.0,15.0,80,0.00,,,0.00,weatherlink.com 1.10,2013-09-08 09:03:00,
2013-09-08 04:18:00,73.5,69.0,29.91,NNE,26,12.0,18.0,85,0.01,,,0.01,weatherlink.com 1.10,2013-09-08 09:18:00,
2013-09-08 04:33:00,71.6,69.0,29.91,NNW,343,4.0,13.0,92,0.20,,,0.20,weatherlink.com 1.10,2013-09-08 09:33:00,
2013-09-08 04:48:00,71.3,70.0,29.97,NNW,329,3.0,12.0,94,0.72,,,0.72,weatherlink.com 1.10,2013-09-08 09:48:00,
2013-09-08 05:03:00,70.9,70.0,29.95,SE,133,2.0,5.0,95,1.40,,,1.40,weatherlink.com 1.10,2013-09-08 10:03:00,
2013-09-08 05:18:00,69.6,68.0,29.92,SE,125,4.0,8.0,95,1.58,,,1.60,weatherlink.com 1.10,2013-09-08 10:18:00,
2013-09-08 05:33:00,68.9,68.0,29.91,SSE,150,7.0,12.0,95,1.43,,,1.64,weatherlink.com 1.10,2013-09-08 10:33:00,
2013-09-08 05:48:00,68.6,67.0,29.91,South,177,10.0,12.0,94,0.90,,,1.66,weatherlink.com 1.10,2013-09-08 10:48:00,
2013-09-08 06:03:00,68.6,67.0,29.97,NNW,346,8.0,13.0,95,0.30,,,1.74,weatherlink.com 1.10,2013-09-08 11:03:00,
2013-09-08 06:34:00,68.3,67.0,29.90,SSE,165,11.0,16.0,96,0.44,,,2.08,weatherlink.com 1.10,2013-09-08 11:34:00,
2013-09-08 06:49:00,68.7,67.0,29.90,SSW,209,6.0,16.0,95,0.43,,,2.09,weatherlink.com 1.10,2013-09-08 11:49:00,
2013-09-08 07:04:00,68.7,67.0,29.89,South,172,3.0,8.0,94,0.34,,,2.10,weatherlink.com 1.10,2013-09-08 12:04:00,
2013-09-08 07:19:00,68.8,66.0,29.89,SSE,167,2.0,6.0,92,0.06,,,2.10,weatherlink.com 1.10,2013-09-08 12:19:00,
2013-09-08 07:34:00,68.8,66.0,29.91,South,186,2.0,6.0,92,0.01,,,2.10,weatherlink.com 1.10,2013-09-08 12:34:00,
2013-09-08 07:49:00,68.9,67.0,29.92,South,176,5.0,8.0,94,0.01,,,2.10,weatherlink.com 1.10,2013-09-08 12:49:00,
2013-09-08 08:04:00,69.1,68.0,29.92,SSE,159,1.0,6.0,95,0.00,,,2.10,weatherlink.com 1.10,2013-09-08 13:04:00,
2013-09-08 08:19:00,69.3,68.0,29.93,SSE,159,0.0,4.0,95,0.00,,,2.10,weatherlink.com 1.10,2013-09-08 13:19:00,
2013-09-08 08:34:00,69.4,68.0,29.93,SSE,159,0.0,1.0,96,0.00,,,2.10,weatherlink.com 1.10,2013-09-08 13:34:00,
2013-09-08 08:49:00,69.7,69.0,29.94,SSE,159,0.0,2.0,96,0.00,,,2.10,weatherlink.com 1.10,2013-09-08 13:49:00,
2013-09-08 09:04:00,69.9,69.0,29.95,SSE,159,0.0,3.0,97,0.00,,,2.10,weatherlink.com 1.10,2013-09-08 14:04:00,
2013-09-08 09:19:00,70.2,69.0,29.95,SSE,159,0.0,2.0,96,0.00,,,2.10,weatherlink.com 1.10,2013-09-08 14:19:00,
2013-09-08 09:34:00,71.2,70.0,29.95,SSE,157,0.0,3.0,96,0.00,,,2.10,weatherlink.com 1.10,2013-09-08 14:34:00,
2013-09-08 09:49:00,72.2,70.0,29.95,SE,143,1.0,5.0,93,0.00,,,2.10,weatherlink.com 1.10,2013-09-08 14:49:00,
2013-09-08 10:04:00,73.0,70.0,29.95,ESE,117,5.0,5.0,90,0.00,,,2.10,weatherlink.com 1.10,2013-09-08 15:04:00,
2013-09-08 10:19:00,74.0,71.0,29.95,SE,132,3.0,5.0,91,0.00,,,2.10,weatherlink.com 1.10,2013-09-08 15:19:00,
2013-09-08 10:34:00,75.5,71.0,29.95,SE,142,1.0,6.0,86,0.00,,,2.10,weatherlink.com 1.10,2013-09-08 15:34:00,
2013-09-08 10:49:00,76.8,71.0,29.95,SE,142,1.0,10.0,83,0.00,,,2.10,weatherlink.com 1.10,2013-09-08 15:49:00,
2013-09-08 11:04:00,77.6,71.0,29.95,SSE,156,5.0,7.0,81,0.00,,,2.10,weatherlink.com 1.10,2013-09-08 16:04:00,
2013-09-08 11:19:00,77.9,71.0,29.94,SE,139,4.0,8.0,80,0.00,,,2.10,weatherlink.com 1.10,2013-09-08 16:19:00,
2013-09-08 11:34:00,78.7,71.0,29.94,SSE,167,2.0,8.0,77,0.00,,,2.10,weatherlink.com 1.10,2013-09-08 16:34:00,
2013-09-08 11:49:00,79.6,72.0,29.94,SSE,166,2.0,7.0,77,0.00,,,2.10,weatherlink.com 1.10,2013-09-08 16:49:00,
2013-09-08 12:04:00,80.5,72.0,29.94,South,178,3.0,9.0,76,0.00,,,2.10,weatherlink.com 1.10,2013-09-08 17:04:00,
2013-09-08 12:19:00,80.6,72.0,29.93,SE,134,2.0,7.0,74,0.00,,,0.00,weatherlink.com 1.10,2013-09-08 17:19:00,
2013-09-08 12:34:00,79.9,71.0,29.93,South,174,0.0,5.0,74,0.00,,,0.00,weatherlink.com 1.10,2013-09-08 17:34:00,
2013-09-08 12:49:00,80.4,71.0,29.93,SE,138,2.0,8.0,73,0.00,,,0.00,weatherlink.com 1.10,2013-09-08 17:49:00,
2013-09-08 13:04:00,80.6,72.0,29.93,SSE,155,1.0,6.0,76,0.00,,,0.00,weatherlink.com 1.10,2013-09-08 18:04:00,
2013-09-08 13:19:00,82.8,72.0,29.92,SE,134,3.0,7.0,70,0.00,,,0.00,weatherlink.com 1.10,2013-09-08 18:19:00,
2013-09-08 13:34:00,83.0,72.0,29.92,SE,143,3.0,7.0,69,0.00,,,0.00,weatherlink.com 1.10,2013-09-08 18:34:00,
2013-09-08 13:49:00,83.1,71.0,29.92,SSE,148,3.0,9.0,68,0.00,,,0.00,weatherlink.com 1.10,2013-09-08 18:49:00,
2013-09-08 14:04:00,83.6,72.0,29.91,SSE,155,2.0,8.0,68,0.00,,,0.00,weatherlink.com 1.10,2013-09-08 19:04:00,
2013-09-08 14:19:00,83.2,72.0,29.91,SE,133,1.0,7.0,70,0.00,,,0.00,weatherlink.com 1.10,2013-09-08 19:19:00,
2013-09-08 14:34:00,82.6,72.0,29.90,SE,125,3.0,9.0,71,0.00,,,0.00,weatherlink.com 1.10,2013-09-08 19:34:00,
2013-09-08 14:49:00,84.3,72.0,29.90,SE,132,5.0,9.0,66,0.00,,,0.00,weatherlink.com 1.10,2013-09-08 19:49:00,
2013-09-08 15:04:00,83.6,72.0,29.90,NE,39,0.0,6.0,68,0.00,,,0.00,weatherlink.com 1.10,2013-09-08 20:04:00,
2013-09-08 15:19:00,84.1,72.0,29.89,SSE,153,1.0,7.0,67,0.00,,,0.00,weatherlink.com 1.10,2013-09-08 20:19:00,
2013-09-08 15:34:00,83.2,72.0,29.89,South,175,4.0,6.0,70,0.00,,,0.00,weatherlink.com 1.10,2013-09-08 20:34:00,
2013-09-08 15:49:00,84.1,72.0,29.88,South,175,3.0,8.0,68,0.00,,,0.00,weatherlink.com 1.10,2013-09-08 20:49:00,
2013-09-08 16:04:00,83.9,72.0,29.88,SE,146,5.0,8.0,68,0.00,,,0.00,weatherlink.com 1.10,2013-09-08 21:04:00,
2013-09-08 16:19:00,84.0,72.0,29.88,South,179,5.0,11.0,68,0.00,,,0.00,weatherlink.com 1.10,2013-09-08 21:19:00,
2013-09-08 16:34:00,84.2,73.0,29.88,South,174,2.0,10.0,68,0.00,,,0.00,weatherlink.com 1.10,2013-09-08 21:34:00,
2013-09-08 16:49:00,84.7,73.0,29.88,SSW,193,2.0,7.0,67,0.00,,,0.00,weatherlink.com 1.10,2013-09-08 21:49:00,
2013-09-08 17:04:00,83.8,72.0,29.88,SSE,159,5.0,7.0,68,0.00,,,0.00,weatherlink.com 1.10,2013-09-08 22:04:00,
2013-09-08 17:19:00,83.4,72.0,29.88,SE,131,3.0,8.0,69,0.00,,,0.00,weatherlink.com 1.10,2013-09-08 22:19:00,
2013-09-08 17:34:00,82.9,72.0,29.88,South,171,2.0,7.0,69,0.00,,,0.00,weatherlink.com 1.10,2013-09-08 22:34:00,
2013-09-08 17:49:00,82.7,72.0,29.88,South,184,5.0,6.0,70,0.00,,,0.00,weatherlink.com 1.10,2013-09-08 22:49:00,
2013-09-08 18:04:00,82.2,72.0,29.89,SSW,202,4.0,6.0,72,0.00,,,0.00,weatherlink.com 1.10,2013-09-08 23:04:00,
2013-09-08 18:19:00,81.9,72.0,29.89,SE,136,2.0,5.0,73,0.00,,,0.00,weatherlink.com 1.10,2013-09-08 23:19:00,
2013-09-08 18:34:00,81.4,72.0,29.89,SSE,154,3.0,7.0,74,0.00,,,0.00,weatherlink.com 1.10,2013-09-08 23:34:00,
2013-09-08 18:49:00,80.5,72.0,29.89,SSE,162,1.0,4.0,75,0.00,,,0.00,weatherlink.com 1.10,2013-09-08 23:49:00,
2013-09-08 19:04:00,79.5,72.0,29.89,SSE,153,1.0,2.0,78,0.00,,,0.00,weatherlink.com 1.10,2013-09-09 00:04:00,
2013-09-08 19:20:00,78.1,72.0,29.89,SE,136,0.0,3.0,80,0.00,,,0.00,weatherlink.com 1.10,2013-09-09 00:20:00,
2013-09-08 19:35:00,76.8,72.0,29.89,SE,129,0.0,3.0,84,0.00,,,0.00,weatherlink.com 1.10,2013-09-09 00:35:00,
2013-09-08 19:50:00,75.8,71.0,29.89,SSE,149,1.0,4.0,85,0.00,,,0.00,weatherlink.com 1.10,2013-09-09 00:50:00,
2013-09-08 20:05:00,75.4,71.0,29.89,SE,136,0.0,2.0,86,0.00,,,0.00,weatherlink.com 1.10,2013-09-09 01:05:00,
2013-09-08 20:20:00,74.9,71.0,29.89,SE,137,0.0,2.0,88,0.00,,,0.00,weatherlink.com 1.10,2013-09-09 01:20:00,
2013-09-08 20:35:00,74.6,71.0,29.89,SE,131,0.0,2.0,88,0.00,,,0.00,weatherlink.com 1.10,2013-09-09 01:35:00,
2013-09-08 20:50:00,74.4,71.0,29.89,SE,143,0.0,3.0,89,0.00,,,0.00,weatherlink.com 1.10,2013-09-09 01:50:00,
2013-09-08 21:05:00,73.9,71.0,29.89,SE,140,0.0,3.0,90,0.00,,,0.00,weatherlink.com 1.10,2013-09-09 02:05:00,
2013-09-08 21:20:00,74.4,71.0,29.89,SSE,154,3.0,5.0,88,0.00,,,0.00,weatherlink.com 1.10,2013-09-09 02:20:00,
2013-09-08 21:35:00,74.5,71.0,29.89,SE,126,1.0,5.0,88,0.00,,,0.00,weatherlink.com 1.10,2013-09-09 02:35:00,
2013-09-08 21:50:00,74.4,71.0,29.89,SSE,157,2.0,5.0,88,0.00,,,0.00,weatherlink.com 1.10,2013-09-09 02:50:00,
2013-09-08 22:05:00,74.0,71.0,29.89,South,175,3.0,5.0,89,0.00,,,0.00,weatherlink.com 1.10,2013-09-09 03:05:00,
2013-09-08 22:20:00,74.0,70.0,29.89,South,179,5.0,5.0,88,0.00,,,0.00,weatherlink.com 1.10,2013-09-09 03:20:00,
2013-09-08 22:35:00,74.1,70.0,29.90,SSE,161,1.0,5.0,88,0.00,,,0.00,weatherlink.com 1.10,2013-09-09 03:35:00,
2013-09-08 22:50:00,73.6,70.0,29.90,SSE,157,2.0,4.0,89,0.00,,,0.00,weatherlink.com 1.10,2013-09-09 03:50:00,
2013-09-08 23:05:00,73.1,70.0,29.90,SSE,160,2.0,3.0,90,0.00,,,0.00,weatherlink.com 1.10,2013-09-09 04:05:00,
2013-09-08 23:20:00,72.8,70.0,29.90,SSE,165,2.0,4.0,91,0.00,,,0.00,weatherlink.com 1.10,2013-09-09 04:20:00,
2013-09-08 23:35:00,72.6,70.0,29.90,SSE,148,1.0,5.0,91,0.00,,,0.00,weatherlink.com 1.10,2013-09-09 04:35:00,
2013-09-08 23:50:00,72.4,70.0,29.90,SSE,161,4.0,5.0,92,0.00,,,0.00,weatherlink.com 1.10,2013-09-09 04:50:00,